sensor_id;sensor_type;location;lat;lon;timestamp;pressure;altitude;pressure_sealevel;temperature;humidity
13027;BME280;6580;42.680;23.324;2023-04-20T00:01:54;94908.44;;;12.16;86.72
13027;BME280;6580;42.680;23.324;2023-04-20T00:04:40;94901.13;;;12.10;87.71
13027;BME280;6580;42.680;23.324;2023-04-20T00:07:26;94893.50;;;11.99;89.93
13027;BME280;6580;42.680;23.324;2023-04-20T00:10:12;94893.09;;;12.10;86.66
13027;BME280;6580;42.680;23.324;2023-04-20T00:13:00;94888.13;;;12.07;88.08
13027;BME280;6580;42.680;23.324;2023-04-20T00:15:45;94886.28;;;12.08;88.21
13027;BME280;6580;42.680;23.324;2023-04-20T00:18:31;94891.34;;;11.95;88.94
13027;BME280;6580;42.680;23.324;2023-04-20T00:21:20;94887.50;;;11.97;88.95
13027;BME280;6580;42.680;23.324;2023-04-20T00:24:07;94887.66;;;11.96;90.31
13027;BME280;6580;42.680;23.324;2023-04-20T00:26:52;94876.06;;;11.81;89.69
13027;BME280;6580;42.680;23.324;2023-04-20T00:29:39;94887.63;;;11.65;90.60
13027;BME280;6580;42.680;23.324;2023-04-20T00:32:25;94892.34;;;11.55;93.14
13027;BME280;6580;42.680;23.324;2023-04-20T00:35:11;94880.31;;;11.51;95.73
13027;BME280;6580;42.680;23.324;2023-04-20T00:37:56;94884.66;;;11.60;94.91
13027;BME280;6580;42.680;23.324;2023-04-20T00:40:43;94883.13;;;11.66;95.18
13027;BME280;6580;42.680;23.324;2023-04-20T00:43:32;94886.63;;;11.66;94.15
13027;BME280;6580;42.680;23.324;2023-04-20T00:46:21;94888.13;;;11.69;94.98
13027;BME280;6580;42.680;23.324;2023-04-20T00:49:06;94886.47;;;11.68;95.09
13027;BME280;6580;42.680;23.324;2023-04-20T00:51:52;94891.66;;;11.61;93.54
13027;BME280;6580;42.680;23.324;2023-04-20T00:54:37;94889.28;;;11.66;95.39
13027;BME280;6580;42.680;23.324;2023-04-20T00:57:24;94877.75;;;11.74;93.11
13027;BME280;6580;42.680;23.324;2023-04-20T01:00:12;94893.34;;;11.62;93.81
13027;BME280;6580;42.680;23.324;2023-04-20T01:02:59;94888.13;;;11.69;93.54
13027;BME280;6580;42.680;23.324;2023-04-20T01:05:47;94882.81;;;11.69;95.92
13027;BME280;6580;42.680;23.324;2023-04-20T01:08:34;94882.81;;;11.61;95.59
13027;BME280;6580;42.680;23.324;2023-04-20T01:11:21;94886.81;;;11.57;96.98
13027;BME280;6580;42.680;23.324;2023-04-20T01:14:06;94874.16;;;11.59;97.51
13027;BME280;6580;42.680;23.324;2023-04-20T01:16:52;94883.28;;;11.72;96.52
13027;BME280;6580;42.680;23.324;2023-04-20T01:19:40;94892.34;;;11.55;97.77
13027;BME280;6580;42.680;23.324;2023-04-20T01:22:30;94884.84;;;11.51;99.45
13027;BME280;6580;42.680;23.324;2023-04-20T01:25:16;94881.69;;;11.39;99.67
13027;BME280;6580;42.680;23.324;2023-04-20T01:28:03;94883.66;;;11.61;99.02
13027;BME280;6580;42.680;23.324;2023-04-20T01:30:48;94880.50;;;11.58;97.49
13027;BME280;6580;42.680;23.324;2023-04-20T01:33:34;94876.66;;;11.52;99.05
13027;BME280;6580;42.680;23.324;2023-04-20T01:36:21;94878.19;;;11.47;98.11
13027;BME280;6580;42.680;23.324;2023-04-20T01:39:08;94873.50;;;11.57;100.00
13027;BME280;6580;42.680;23.324;2023-04-20T01:41:54;94873.00;;;11.53;99.23
13027;BME280;6580;42.680;23.324;2023-04-20T01:44:40;94862.66;;;11.58;98.73
13027;BME280;6580;42.680;23.324;2023-04-20T01:47:25;94867.31;;;11.64;98.45
13027;BME280;6580;42.680;23.324;2023-04-20T01:50:11;94856.94;;;11.69;96.35
13027;BME280;6580;42.680;23.324;2023-04-20T01:52:56;94861.13;;;11.72;94.98
13027;BME280;6580;42.680;23.324;2023-04-20T01:55:43;94864.66;;;11.64;97.23
13027;BME280;6580;42.680;23.324;2023-04-20T01:58:29;94859.00;;;11.59;96.49
13027;BME280;6580;42.680;23.324;2023-04-20T02:01:14;94866.16;;;11.51;97.92
13027;BME280;6580;42.680;23.324;2023-04-20T02:04:00;94860.00;;;11.58;96.70
13027;BME280;6580;42.680;23.324;2023-04-20T02:06:45;94862.38;;;11.45;96.84
13027;BME280;6580;42.680;23.324;2023-04-20T02:09:30;94848.50;;;11.50;97.08
13027;BME280;6580;42.680;23.324;2023-04-20T02:12:19;94860.56;;;11.30;98.39
13027;BME280;6580;42.680;23.324;2023-04-20T02:15:05;94857.72;;;11.31;97.38
13027;BME280;6580;42.680;23.324;2023-04-20T02:17:52;94854.09;;;11.16;98.36
13027;BME280;6580;42.680;23.324;2023-04-20T02:20:37;94859.28;;;11.02;100.00
13027;BME280;6580;42.680;23.324;2023-04-20T02:23:23;94860.66;;;10.98;100.00
13027;BME280;6580;42.680;23.324;2023-04-20T02:26:09;94859.81;;;10.98;100.00
13027;BME280;6580;42.680;23.324;2023-04-20T02:28:56;94859.81;;;10.98;100.00
13027;BME280;6580;42.680;23.324;2023-04-20T02:31:41;94856.81;;;10.93;100.00
13027;BME280;6580;42.680;23.324;2023-04-20T02:34:27;94858.97;;;10.89;100.00
13027;BME280;6580;42.680;23.324;2023-04-20T02:37:13;94867.47;;;10.93;100.00
13027;BME280;6580;42.680;23.324;2023-04-20T02:39:58;94863.31;;;10.98;100.00
13027;BME280;6580;42.680;23.324;2023-04-20T02:42:43;94866.66;;;11.00;100.00
13027;BME280;6580;42.680;23.324;2023-04-20T02:45:31;94858.13;;;10.97;100.00
13027;BME280;6580;42.680;23.324;2023-04-20T02:48:16;94872.47;;;10.96;100.00
13027;BME280;6580;42.680;23.324;2023-04-20T02:51:01;94865.63;;;10.85;100.00
13027;BME280;6580;42.680;23.324;2023-04-20T02:53:47;94864.16;;;10.91;100.00
13027;BME280;6580;42.680;23.324;2023-04-20T02:56:32;94860.47;;;11.08;100.00
13027;BME280;6580;42.680;23.324;2023-04-20T02:59:19;94855.63;;;11.11;100.00
13027;BME280;6580;42.680;23.324;2023-04-20T03:02:05;94861.56;;;11.21;99.96
13027;BME280;6580;42.680;23.324;2023-04-20T03:04:51;94862.75;;;11.10;100.00
13027;BME280;6580;42.680;23.324;2023-04-20T03:07:36;94853.75;;;11.19;100.00
13027;BME280;6580;42.680;23.324;2023-04-20T03:10:22;94861.94;;;11.18;100.00
13027;BME280;6580;42.680;23.324;2023-04-20T03:13:08;94857.75;;;11.15;100.00
13027;BME280;6580;42.680;23.324;2023-04-20T03:15:55;94863.09;;;11.15;100.00
13027;BME280;6580;42.680;23.324;2023-04-20T03:18:41;94861.25;;;11.24;99.10
13027;BME280;6580;42.680;23.324;2023-04-20T03:21:27;94859.09;;;11.11;99.25
13027;BME280;6580;42.680;23.324;2023-04-20T03:24:15;94849.63;;;11.01;100.00
13027;BME280;6580;42.680;23.324;2023-04-20T03:27:02;94852.63;;;11.14;100.00
13027;BME280;6580;42.680;23.324;2023-04-20T03:29:49;94860.78;;;11.05;99.75
13027;BME280;6580;42.680;23.324;2023-04-20T03:32:35;94871.13;;;11.08;99.19
13027;BME280;6580;42.680;23.324;2023-04-20T03:35:22;94868.16;;;10.87;100.00
13027;BME280;6580;42.680;23.324;2023-04-20T03:38:08;94866.47;;;10.94;100.00
13027;BME280;6580;42.680;23.324;2023-04-20T03:40:54;94869.75;;;11.11;100.00
13027;BME280;6580;42.680;23.324;2023-04-20T03:43:40;94858.28;;;11.19;99.83
13027;BME280;6580;42.680;23.324;2023-04-20T03:46:26;94860.56;;;11.30;98.49
13027;BME280;6580;42.680;23.324;2023-04-20T03:49:11;94858.91;;;11.29;99.61
13027;BME280;6580;42.680;23.324;2023-04-20T03:51:58;94854.06;;;11.32;97.81
13027;BME280;6580;42.680;23.324;2023-04-20T03:54:43;94864.03;;;11.38;96.76
13027;BME280;6580;42.680;23.324;2023-04-20T03:57:29;94867.03;;;11.43;95.70
13027;BME280;6580;42.680;23.324;2023-04-20T04:00:15;94861.69;;;11.43;96.84
13027;BME280;6580;42.680;23.324;2023-04-20T04:03:00;94862.34;;;11.53;94.09
13027;BME280;6580;42.680;23.324;2023-04-20T04:05:46;94866.53;;;11.40;94.06
13027;BME280;6580;42.680;23.324;2023-04-20T04:08:38;94868.94;;;11.03;97.28
13027;BME280;6580;42.680;23.324;2023-04-20T04:11:25;94868.94;;;11.19;98.96
13027;BME280;6580;42.680;23.324;2023-04-20T04:14:13;94877.56;;;11.29;98.31
13027;BME280;6580;42.680;23.324;2023-04-20T04:16:58;94874.69;;;11.38;98.40
13027;BME280;6580;42.680;23.324;2023-04-20T04:19:44;94863.72;;;11.33;97.33
13027;BME280;6580;42.680;23.324;2023-04-20T04:22:30;94878.03;;;11.40;98.27
13027;BME280;6580;42.680;23.324;2023-04-20T04:25:17;94876.00;;;11.50;96.62
13027;BME280;6580;42.680;23.324;2023-04-20T04:28:03;94878.03;;;11.40;96.73
13027;BME280;6580;42.680;23.324;2023-04-20T04:30:49;94878.09;;;11.24;96.23
13027;BME280;6580;42.680;23.324;2023-04-20T04:33:34;94880.03;;;11.38;96.82
13027;BME280;6580;42.680;23.324;2023-04-20T04:36:19;94879.28;;;11.14;96.69
13027;BME280;6580;42.680;23.324;2023-04-20T04:39:10;94883.41;;;11.24;96.66
13027;BME280;6580;42.680;23.324;2023-04-20T04:41:57;94883.84;;;11.44;95.64
13027;BME280;6580;42.680;23.324;2023-04-20T04:44:44;94879.34;;;11.60;95.52
13027;BME280;6580;42.680;23.324;2023-04-20T04:47:33;94882.38;;;11.41;93.69
13027;BME280;6580;42.680;23.324;2023-04-20T04:50:20;94894.19;;;11.55;94.42
13027;BME280;6580;42.680;23.324;2023-04-20T04:53:06;94890.84;;;11.45;96.85
13027;BME280;6580;42.680;23.324;2023-04-20T04:55:51;94904.03;;;11.46;96.88
13027;BME280;6580;42.680;23.324;2023-04-20T04:58:39;94897.66;;;11.63;97.17
13027;BME280;6580;42.680;23.324;2023-04-20T05:01:24;94900.06;;;11.89;92.91
13027;BME280;6580;42.680;23.324;2023-04-20T05:04:10;94904.75;;;11.79;91.65
13027;BME280;6580;42.680;23.324;2023-04-20T05:06:55;94905.06;;;11.84;91.19
13027;BME280;6580;42.680;23.324;2023-04-20T05:09:40;94905.91;;;11.84;92.89
13027;BME280;6580;42.680;23.324;2023-04-20T05:12:26;94909.88;;;11.88;91.19
13027;BME280;6580;42.680;23.324;2023-04-20T05:15:13;94903.59;;;11.81;91.52
13027;BME280;6580;42.680;23.324;2023-04-20T05:17:58;94900.94;;;11.81;92.05
13027;BME280;6580;42.680;23.324;2023-04-20T05:20:45;94909.94;;;11.80;92.70
13027;BME280;6580;42.680;23.324;2023-04-20T05:23:30;94902.22;;;11.85;91.85
13027;BME280;6580;42.680;23.324;2023-04-20T05:26:16;94917.56;;;11.83;91.83
13027;BME280;6580;42.680;23.324;2023-04-20T05:29:01;94911.41;;;11.83;92.45
13027;BME280;6580;42.680;23.324;2023-04-20T05:31:48;94912.97;;;12.08;90.21
13027;BME280;6580;42.680;23.324;2023-04-20T05:34:33;94903.09;;;12.16;89.45
13027;BME280;6580;42.680;23.324;2023-04-20T05:37:19;94907.94;;;12.13;89.50
13027;BME280;6580;42.680;23.324;2023-04-20T05:40:07;94910.13;;;12.09;90.45
13027;BME280;6580;42.680;23.324;2023-04-20T05:42:53;94913.09;;;11.84;92.24
13027;BME280;6580;42.680;23.324;2023-04-20T05:45:38;94919.56;;;11.89;92.97
13027;BME280;6580;42.680;23.324;2023-04-20T05:48:25;94915.00;;;11.98;93.21
13027;BME280;6580;42.680;23.324;2023-04-20T05:51:11;94912.09;;;12.15;93.09
13027;BME280;6580;42.680;23.324;2023-04-20T05:53:56;94905.13;;;12.06;91.96
13027;BME280;6580;42.680;23.324;2023-04-20T05:56:41;94903.25;;;12.14;90.50
13027;BME280;6580;42.680;23.324;2023-04-20T05:59:27;94907.38;;;12.25;91.08
13027;BME280;6580;42.680;23.324;2023-04-20T06:02:12;94904.38;;;12.20;93.13
13027;BME280;6580;42.680;23.324;2023-04-20T06:05:00;94905.44;;;12.11;95.00
13027;BME280;6580;42.680;23.324;2023-04-20T06:07:46;94903.56;;;12.19;95.60
13027;BME280;6580;42.680;23.324;2023-04-20T06:10:31;94906.75;;;12.15;95.19
13027;BME280;6580;42.680;23.324;2023-04-20T06:13:17;94913.78;;;12.16;97.25
13027;BME280;6580;42.680;23.324;2023-04-20T06:16:04;94910.25;;;12.15;99.42
13027;BME280;6580;42.680;23.324;2023-04-20T06:18:52;94911.75;;;12.18;97.06
13027;BME280;6580;42.680;23.324;2023-04-20T06:21:40;94919.94;;;12.16;96.01
13027;BME280;6580;42.680;23.324;2023-04-20T06:24:25;94911.81;;;12.32;95.51
13027;BME280;6580;42.680;23.324;2023-04-20T06:27:12;94920.59;;;12.18;97.12
13027;BME280;6580;42.680;23.324;2023-04-20T06:29:58;94926.25;;;12.23;96.36
13027;BME280;6580;42.680;23.324;2023-04-20T06:32:44;94912.91;;;12.46;94.56
13027;BME280;6580;42.680;23.324;2023-04-20T06:35:29;94906.91;;;12.21;94.72
13027;BME280;6580;42.680;23.324;2023-04-20T06:38:16;94907.91;;;12.20;95.45
13027;BME280;6580;42.680;23.324;2023-04-20T06:41:02;94919.59;;;12.19;97.34
13027;BME280;6580;42.680;23.324;2023-04-20T06:43:47;94915.00;;;12.36;95.90
13027;BME280;6580;42.680;23.324;2023-04-20T06:46:33;94925.56;;;12.52;94.63
13027;BME280;6580;42.680;23.324;2023-04-20T06:49:20;94925.59;;;12.44;96.04
13027;BME280;6580;42.680;23.324;2023-04-20T06:52:06;94937.41;;;12.49;96.41
13027;BME280;6580;42.680;23.324;2023-04-20T06:54:53;94937.66;;;12.40;96.04
13027;BME280;6580;42.680;23.324;2023-04-20T06:57:38;94942.47;;;12.14;100.00
13027;BME280;6580;42.680;23.324;2023-04-20T07:00:26;94943.28;;;12.14;100.00
13027;BME280;6580;42.680;23.324;2023-04-20T07:03:12;94928.25;;;12.21;100.00
13027;BME280;6580;42.680;23.324;2023-04-20T07:05:59;94943.50;;;12.43;100.00
13027;BME280;6580;42.680;23.324;2023-04-20T07:08:45;94939.66;;;12.38;100.00
13027;BME280;6580;42.680;23.324;2023-04-20T07:11:34;94943.06;;;12.54;100.00
13027;BME280;6580;42.680;23.324;2023-04-20T07:14:19;94944.75;;;12.55;100.00
13027;BME280;6580;42.680;23.324;2023-04-20T07:17:05;94941.41;;;12.76;100.00
13027;BME280;6580;42.680;23.324;2023-04-20T07:19:50;94947.47;;;13.00;100.00
13027;BME280;6580;42.680;23.324;2023-04-20T07:22:36;94941.34;;;13.14;100.00
13027;BME280;6580;42.680;23.324;2023-04-20T07:25:22;94930.44;;;13.16;96.39
13027;BME280;6580;42.680;23.324;2023-04-20T07:28:09;94943.25;;;13.20;94.49
13027;BME280;6580;42.680;23.324;2023-04-20T07:30:55;94939.97;;;13.32;96.50
13027;BME280;6580;42.680;23.324;2023-04-20T07:33:40;94938.19;;;13.62;93.00
13027;BME280;6580;42.680;23.324;2023-04-20T07:36:26;94936.06;;;13.57;92.70
13027;BME280;6580;42.680;23.324;2023-04-20T07:39:12;94930.13;;;13.47;91.29
13027;BME280;6580;42.680;23.324;2023-04-20T07:42:01;94935.47;;;13.47;90.19
13027;BME280;6580;42.680;23.324;2023-04-20T07:44:50;94926.47;;;13.77;87.43
13027;BME280;6580;42.680;23.324;2023-04-20T07:47:36;94931.94;;;14.13;83.29
13027;BME280;6580;42.680;23.324;2023-04-20T07:50:22;94934.16;;;14.59;81.02
13027;BME280;6580;42.680;23.324;2023-04-20T07:53:07;94927.28;;;15.13;77.68
13027;BME280;6580;42.680;23.324;2023-04-20T07:55:53;94926.53;;;15.94;70.90
13027;BME280;6580;42.680;23.324;2023-04-20T07:58:39;94916.84;;;16.93;65.38
13027;BME280;6580;42.680;23.324;2023-04-20T08:01:28;94914.44;;;17.76;60.43
13027;BME280;6580;42.680;23.324;2023-04-20T08:04:17;94920.25;;;17.79;59.60
13027;BME280;6580;42.680;23.324;2023-04-20T08:07:02;94922.47;;;17.11;60.07
13027;BME280;6580;42.680;23.324;2023-04-20T08:09:48;94925.66;;;16.68;61.88
13027;BME280;6580;42.680;23.324;2023-04-20T08:12:34;94937.16;;;15.27;68.79
13027;BME280;6580;42.680;23.324;2023-04-20T08:15:20;94929.81;;;15.62;69.07
13027;BME280;6580;42.680;23.324;2023-04-20T08:18:07;94931.03;;;15.60;68.17
13027;BME280;6580;42.680;23.324;2023-04-20T08:20:55;94931.28;;;15.65;67.70
13027;BME280;6580;42.680;23.324;2023-04-20T08:23:41;94937.63;;;15.16;69.06
13027;BME280;6580;42.680;23.324;2023-04-20T08:26:26;94929.84;;;15.00;72.76
13027;BME280;6580;42.680;23.324;2023-04-20T08:29:11;94930.22;;;14.97;71.64
13027;BME280;6580;42.680;23.324;2023-04-20T08:31:57;94937.16;;;15.06;72.29
13027;BME280;6580;42.680;23.324;2023-04-20T08:34:44;94933.69;;;14.91;70.65
13027;BME280;6580;42.680;23.324;2023-04-20T08:37:30;94940.97;;;15.38;69.17
13027;BME280;6580;42.680;23.324;2023-04-20T08:40:19;94940.59;;;15.41;67.75
13027;BME280;6580;42.680;23.324;2023-04-20T08:43:05;94931.06;;;15.66;68.43
13027;BME280;6580;42.680;23.324;2023-04-20T08:45:57;94926.28;;;15.14;69.42
13027;BME280;6580;42.680;23.324;2023-04-20T08:48:45;94935.47;;;14.84;71.53
13027;BME280;6580;42.680;23.324;2023-04-20T08:51:33;94937.75;;;14.66;73.30
13027;BME280;6580;42.680;23.324;2023-04-20T08:54:20;94940.72;;;14.92;69.48
13027;BME280;6580;42.680;23.324;2023-04-20T08:57:10;94933.50;;;14.92;70.35
13027;BME280;6580;42.680;23.324;2023-04-20T08:59:56;94939.84;;;15.06;69.73
13027;BME280;6580;42.680;23.324;2023-04-20T09:02:48;94930.50;;;15.02;69.88
13027;BME280;6580;42.680;23.324;2023-04-20T09:05:34;94933.38;;;14.79;71.27
13027;BME280;6580;42.680;23.324;2023-04-20T09:08:33;94931.38;;;14.67;72.00
13027;BME280;6580;42.680;23.324;2023-04-20T09:11:20;94933.44;;;14.86;72.12
13027;BME280;6580;42.680;23.324;2023-04-20T09:14:08;94939.00;;;15.26;69.32
13027;BME280;6580;42.680;23.324;2023-04-20T09:16:59;94936.69;;;15.44;68.31
13027;BME280;6580;42.680;23.324;2023-04-20T09:19:52;94940.34;;;15.36;66.64
13027;BME280;6580;42.680;23.324;2023-04-20T09:22:37;94922.63;;;15.42;66.74
13027;BME280;6580;42.680;23.324;2023-04-20T09:25:31;94936.56;;;15.79;66.20
13027;BME280;6580;42.680;23.324;2023-04-20T09:28:17;94929.19;;;16.28;63.79
13027;BME280;6580;42.680;23.324;2023-04-20T09:31:03;94915.03;;;16.47;60.84
13027;BME280;6580;42.680;23.324;2023-04-20T09:33:55;94913.75;;;17.09;58.96
13027;BME280;6580;42.680;23.324;2023-04-20T09:36:43;94909.38;;;16.82;61.59
13027;BME280;6580;42.680;23.324;2023-04-20T09:39:29;94910.31;;;17.60;58.70
13027;BME280;6580;42.680;23.324;2023-04-20T09:42:19;94912.91;;;18.25;55.11
13027;BME280;6580;42.680;23.324;2023-04-20T09:45:07;94909.03;;;19.02;51.48
13027;BME280;6580;42.680;23.324;2023-04-20T09:47:54;94900.16;;;19.33;50.54
13027;BME280;6580;42.680;23.324;2023-04-20T09:50:42;94906.22;;;18.84;51.22
13027;BME280;6580;42.680;23.324;2023-04-20T09:53:29;94895.44;;;18.84;51.00
13027;BME280;6580;42.680;23.324;2023-04-20T09:56:18;94897.03;;;18.98;51.47
13027;BME280;6580;42.680;23.324;2023-04-20T09:59:07;94894.31;;;18.61;53.52
13027;BME280;6580;42.680;23.324;2023-04-20T10:01:54;94895.06;;;19.12;51.18
13027;BME280;6580;42.680;23.324;2023-04-20T10:04:51;94894.16;;;18.93;50.83
13027;BME280;6580;42.680;23.324;2023-04-20T10:07:37;94889.06;;;18.29;52.53
13027;BME280;6580;42.680;23.324;2023-04-20T10:10:23;94874.41;;;18.93;51.37
13027;BME280;6580;42.680;23.324;2023-04-20T10:13:12;94883.63;;;19.71;48.76
13027;BME280;6580;42.680;23.324;2023-04-20T10:16:00;94872.28;;;20.77;46.13
13027;BME280;6580;42.680;23.324;2023-04-20T10:18:55;94865.25;;;20.04;47.45
13027;BME280;6580;42.680;23.324;2023-04-20T10:21:45;94861.22;;;20.13;45.89
13027;BME280;6580;42.680;23.324;2023-04-20T10:24:31;94872.00;;;19.71;47.33
13027;BME280;6580;42.680;23.324;2023-04-20T10:27:17;94867.44;;;19.47;47.09
13027;BME280;6580;42.680;23.324;2023-04-20T10:30:10;94862.47;;;21.23;43.98
13027;BME280;6580;42.680;23.324;2023-04-20T10:33:04;94855.53;;;21.68;43.69
13027;BME280;6580;42.680;23.324;2023-04-20T10:35:52;94854.81;;;21.20;43.41
13027;BME280;6580;42.680;23.324;2023-04-20T10:38:38;94849.75;;;22.84;40.63
13027;BME280;6580;42.680;23.324;2023-04-20T10:41:24;94858.31;;;23.04;40.40
13027;BME280;6580;42.680;23.324;2023-04-20T10:44:10;94846.63;;;24.46;37.02
13027;BME280;6580;42.680;23.324;2023-04-20T10:46:55;94849.81;;;23.56;37.44
13027;BME280;6580;42.680;23.324;2023-04-20T10:49:45;94848.56;;;23.63;36.81
13027;BME280;6580;42.680;23.324;2023-04-20T10:52:34;94852.22;;;23.25;37.95
13027;BME280;6580;42.680;23.324;2023-04-20T10:55:23;94861.75;;;23.11;37.90
13027;BME280;6580;42.680;23.324;2023-04-20T10:58:19;94846.69;;;22.41;38.41
13027;BME280;6580;42.680;23.324;2023-04-20T11:01:05;94850.59;;;22.11;40.06
13027;BME280;6580;42.680;23.324;2023-04-20T11:03:51;94839.63;;;23.79;37.57
13027;BME280;6580;42.680;23.324;2023-04-20T11:06:40;94845.19;;;23.89;37.03
13027;BME280;6580;42.680;23.324;2023-04-20T11:09:26;94825.75;;;24.73;35.82
13027;BME280;6580;42.680;23.324;2023-04-20T11:12:13;94831.38;;;24.67;35.18
13027;BME280;6580;42.680;23.324;2023-04-20T11:15:01;94844.00;;;22.80;38.59
13027;BME280;6580;42.680;23.324;2023-04-20T11:17:47;94832.44;;;22.11;39.54
13027;BME280;6580;42.680;23.324;2023-04-20T11:20:32;94840.66;;;20.59;42.43
13027;BME280;6580;42.680;23.324;2023-04-20T11:23:20;94838.16;;;20.29;42.75
13027;BME280;6580;42.680;23.324;2023-04-20T11:26:06;94834.56;;;20.82;42.05
13027;BME280;6580;42.680;23.324;2023-04-20T11:28:54;94832.50;;;20.30;41.94
13027;BME280;6580;42.680;23.324;2023-04-20T11:31:41;94834.09;;;20.85;41.94
13027;BME280;6580;42.680;23.324;2023-04-20T11:34:26;94830.84;;;20.47;42.41
13027;BME280;6580;42.680;23.324;2023-04-20T11:37:12;94825.84;;;20.80;41.64
13027;BME280;6580;42.680;23.324;2023-04-20T11:39:59;94818.03;;;20.25;42.46
13027;BME280;6580;42.680;23.324;2023-04-20T11:42:45;94823.72;;;20.17;43.09
13027;BME280;6580;42.680;23.324;2023-04-20T11:45:31;94828.16;;;20.11;43.04
13027;BME280;6580;42.680;23.324;2023-04-20T11:48:18;94818.44;;;20.40;43.38
13027;BME280;6580;42.680;23.324;2023-04-20T11:51:04;94816.78;;;20.39;42.18
13027;BME280;6580;42.680;23.324;2023-04-20T11:53:50;94820.13;;;20.70;41.78
13027;BME280;6580;42.680;23.324;2023-04-20T11:56:36;94818.22;;;20.05;42.23
13027;BME280;6580;42.680;23.324;2023-04-20T11:59:22;94834.41;;;19.45;43.54
13027;BME280;6580;42.680;23.324;2023-04-20T12:02:08;94815.28;;;18.91;44.50
13027;BME280;6580;42.680;23.324;2023-04-20T12:04:53;94810.19;;;19.08;44.93
13027;BME280;6580;42.680;23.324;2023-04-20T12:07:40;94802.63;;;19.65;44.25
13027;BME280;6580;42.680;23.324;2023-04-20T12:10:26;94825.69;;;19.43;45.12
13027;BME280;6580;42.680;23.324;2023-04-20T12:13:14;94816.69;;;18.94;46.50
13027;BME280;6580;42.680;23.324;2023-04-20T12:16:00;94819.13;;;17.70;48.90
13027;BME280;6580;42.680;23.324;2023-04-20T12:18:46;94839.78;;;16.47;53.41
13027;BME280;6580;42.680;23.324;2023-04-20T12:21:33;94830.44;;;16.43;54.78
13027;BME280;6580;42.680;23.324;2023-04-20T12:24:19;94831.59;;;17.00;54.59
13027;BME280;6580;42.680;23.324;2023-04-20T12:27:04;94831.97;;;16.71;55.09
13027;BME280;6580;42.680;23.324;2023-04-20T12:29:52;94831.78;;;16.99;54.69
13027;BME280;6580;42.680;23.324;2023-04-20T12:32:37;94829.94;;;16.99;55.49
13027;BME280;6580;42.680;23.324;2023-04-20T12:35:24;94827.84;;;16.95;56.07
13027;BME280;6580;42.680;23.324;2023-04-20T12:38:11;94820.44;;;17.10;54.36
13027;BME280;6580;42.680;23.324;2023-04-20T12:40:56;94819.59;;;17.48;53.48
13027;BME280;6580;42.680;23.324;2023-04-20T12:43:42;94819.31;;;17.82;51.67
13027;BME280;6580;42.680;23.324;2023-04-20T12:46:31;94812.56;;;18.23;51.01
13027;BME280;6580;42.680;23.324;2023-04-20T12:49:17;94813.28;;;17.86;51.57
13027;BME280;6580;42.680;23.324;2023-04-20T12:52:03;94804.72;;;19.21;48.97
13027;BME280;6580;42.680;23.324;2023-04-20T12:54:48;94802.41;;;19.84;46.60
13027;BME280;6580;42.680;23.324;2023-04-20T12:57:33;94805.50;;;19.28;48.18
13027;BME280;6580;42.680;23.324;2023-04-20T13:00:19;94809.38;;;18.76;48.26
13027;BME280;6580;42.680;23.324;2023-04-20T13:03:06;94810.50;;;18.62;47.40
13027;BME280;6580;42.680;23.324;2023-04-20T13:05:52;94805.38;;;18.48;48.20
13027;BME280;6580;42.680;23.324;2023-04-20T13:08:37;94804.91;;;18.88;47.55
13027;BME280;6580;42.680;23.324;2023-04-20T13:11:23;94805.59;;;19.08;47.65
13027;BME280;6580;42.680;23.324;2023-04-20T13:14:08;94802.72;;;19.03;46.96
13027;BME280;6580;42.680;23.324;2023-04-20T13:16:54;94804.78;;;18.46;48.78
13027;BME280;6580;42.680;23.324;2023-04-20T13:19:41;94803.13;;;17.88;51.07
13027;BME280;6580;42.680;23.324;2023-04-20T13:22:27;94802.97;;;17.70;53.13
13027;BME280;6580;42.680;23.324;2023-04-20T13:25:13;94800.44;;;17.82;54.06
13027;BME280;6580;42.680;23.324;2023-04-20T13:27:59;94799.41;;;18.39;52.54
13027;BME280;6580;42.680;23.324;2023-04-20T13:30:44;94812.75;;;18.28;52.28
13027;BME280;6580;42.680;23.324;2023-04-20T13:33:31;94816.41;;;17.90;53.51
13027;BME280;6580;42.680;23.324;2023-04-20T13:36:17;94812.03;;;17.95;55.07
13027;BME280;6580;42.680;23.324;2023-04-20T13:39:03;94816.72;;;18.06;53.47
13027;BME280;6580;42.680;23.324;2023-04-20T13:41:48;94820.44;;;17.35;58.27
13027;BME280;6580;42.680;23.324;2023-04-20T13:44:34;94817.72;;;17.03;59.79
13027;BME280;6580;42.680;23.324;2023-04-20T13:47:21;94810.25;;;16.86;61.80
13027;BME280;6580;42.680;23.324;2023-04-20T13:50:07;94810.06;;;17.13;63.46
13027;BME280;6580;42.680;23.324;2023-04-20T13:52:55;94808.59;;;16.98;65.03
13027;BME280;6580;42.680;23.324;2023-04-20T13:55:41;94809.22;;;17.06;66.93
13027;BME280;6580;42.680;23.324;2023-04-20T13:58:26;94811.72;;;17.08;68.75
13027;BME280;6580;42.680;23.324;2023-04-20T14:01:13;94810.06;;;17.33;78.11
13027;BME280;6580;42.680;23.324;2023-04-20T14:04:00;94820.81;;;17.20;72.50
13027;BME280;6580;42.680;23.324;2023-04-20T14:06:46;94812.94;;;16.99;72.22
13027;BME280;6580;42.680;23.324;2023-04-20T14:09:33;94812.94;;;17.12;69.16
13027;BME280;6580;42.680;23.324;2023-04-20T14:12:19;94812.53;;;17.08;67.81
13027;BME280;6580;42.680;23.324;2023-04-20T14:15:06;94820.84;;;17.33;65.72
13027;BME280;6580;42.680;23.324;2023-04-20T14:17:52;94821.88;;;17.06;65.41
13027;BME280;6580;42.680;23.324;2023-04-20T14:20:38;94826.22;;;17.20;64.12
13027;BME280;6580;42.680;23.324;2023-04-20T14:23:24;94834.06;;;17.21;61.55
13027;BME280;6580;42.680;23.324;2023-04-20T14:26:10;94825.31;;;16.54;62.41
13027;BME280;6580;42.680;23.324;2023-04-20T14:28:59;94832.84;;;16.25;67.81
13027;BME280;6580;42.680;23.324;2023-04-20T14:31:44;94834.50;;;16.26;67.54
13027;BME280;6580;42.680;23.324;2023-04-20T14:34:32;94833.66;;;16.19;70.53
13027;BME280;6580;42.680;23.324;2023-04-20T14:37:18;94835.53;;;16.25;73.89
13027;BME280;6580;42.680;23.324;2023-04-20T14:40:04;94831.69;;;16.40;72.38
13027;BME280;6580;42.680;23.324;2023-04-20T14:42:53;94832.16;;;16.63;71.93